AST,Max TemperatureF,Mean TemperatureF,Min TemperatureF,Max Dew PointF,MeanDew PointF,Min DewpointF,Max Humidity, Mean Humidity, Min Humidity, Max Sea Level PressureIn, Mean Sea Level PressureIn, Min Sea Level PressureIn, Max VisibilityMiles, Mean VisibilityMiles, Min VisibilityMiles, Max Wind SpeedMPH, Mean Wind SpeedMPH, Max Gust SpeedMPH,PrecipitationIn, CloudCover, Events, WindDirDegrees
2012-11-1,62,60,57,61,58,55,100,93,82,29.75,29.66,29.57,4,2,0,32,16,40,1.06,5,Rain,163
2012-11-2,60,58,55,57,56,54,100,94,84,29.62,29.55,29.48,9,3,0,16,8,25,0.04,7,Rain,135
2012-11-3,60,56,53,58,54,50,100,94,77,29.47,29.40,29.26,9,3,0,24,7,34,0.12,6,Rain,80
2012-11-4,56,53,50,52,48,41,94,83,63,29.74,29.53,29.33,9,7,2,25,17,32,0.02,8,Rain,279
2012-11-5,56,52,48,54,45,37,100,76,50,29.94,29.84,29.69,9,7,1,22,14,30,0.51,7,Rain,100
2012-11-6,55,48,40,54,42,27,100,79,45,30.25,29.85,29.60,9,7,1,38,16,45,0.28,7,Rain,317
2012-11-7,51,46,40,50,42,28,94,79,45,30.25,29.98,29.75,9,5,1,47,21,55,0.39,8,Rain,60
2012-11-8,63,55,47,61,57,50,100,96,87,29.80,29.70,29.60,4,1,0,28,14,36,0.02,7,Rain,128
2012-11-9,57,52,46,55,53,41,100,94,80,29.70,29.53,29.45,9,4,0,23,10,31,0.43,8,Rain,340
2012-11-10,48,45,41,40,33,25,76,58,34,30.28,29.98,29.71,9,9,9,31,22,37,0.04,6,,301
2012-11-11,48,44,41,34,30,25,61,53,38,30.60,30.48,30.30,9,9,9,23,18,33,0.02,3,,297
2012-11-12,56,52,47,52,45,30,94,73,44,30.63,30.59,30.55,9,9,7,16,11,,0.00,3,,215
2012-11-13,58,56,53,54,53,52,94,87,76,30.54,30.46,30.37,9,8,5,17,15,22,0.00,1,,186
2012-11-14,60,56,51,57,55,49,100,95,88,30.36,30.29,30.25,8,2,0,22,12,29,1.14,8,Rain,149
2012-11-15,52,50,49,50,49,46,100,94,87,30.25,30.11,30.03,7,3,0,29,23,36,0.02,8,Rain,26
2012-11-16,50,48,46,48,46,42,100,91,79,30.19,30.11,30.03,9,6,1,24,16,29,0.00,8,,2
2012-11-17,46,44,42,41,35,32,81,68,51,30.51,30.37,30.19,9,9,7,20,14,29,0.00,8,Rain,348
2012-11-18,45,42,40,34,30,27,70,59,45,30.66,30.60,30.51,9,9,9,18,11,24,0.02,8,Rain,352
2012-11-19,45,42,39,34,31,28,75,62,49,30.64,30.49,30.30,9,9,9,13,9,17,0.00,6,,301
2012-11-20,49,45,41,37,34,32,71,62,47,30.28,30.14,30.08,9,9,9,18,9,28,0.00,5,,7
2012-11-21,46,44,42,41,35,28,87,65,45,30.25,30.18,30.11,9,9,2,26,18,32,0.00,7,Rain,65
2012-11-22,49,44,39,39,36,32,81,68,53,30.25,30.22,30.18,9,9,9,13,10,,0.02,5,,51
2012-11-23,55,46,38,54,47,35,100,87,64,30.17,29.98,29.78,9,6,0,16,9,21,0.00,5,,79
2012-11-24,54,52,50,54,51,50,100,95,87,29.77,29.36,29.22,9,3,0,22,15,28,0.00,7,Rain,336
2012-11-25,51,46,41,50,36,28,94,73,44,29.60,29.41,29.23,9,7,3,41,23,51,0.08,7,Rain,256
2012-11-26,45,42,39,36,30,21,81,58,33,30.00,29.73,29.60,9,8,2,33,26,43,0.04,6,Rain,265
2012-11-27,43,39,35,32,26,21,81,56,39,30.37,30.26,30.04,9,9,7,20,15,31,0.00,5,Rain,275
2012-11-28,43,39,35,41,35,28,93,80,61,30.32,30.02,29.78,9,6,2,29,14,37,0.47,8,Rain,43
2012-11-29,41,39,37,41,31,23,93,70,41,29.99,29.88,29.72,9,8,2,32,24,40,0.28,7,Rain,311
2012-11-30,41,34,28,34,25,12,93,70,36,30.38,30.09,29.94,9,7,1,37,24,45,0.08,8,Rain-Snow,295